createdAt,value
2022-08-26T00:00:10.080Z,0.40
2022-08-26T00:01:10.088Z,0.30
2022-08-26T00:02:10.096Z,0.50
2022-08-26T00:03:10.044Z,0.60
2022-08-26T00:04:10.073Z,0.50
2022-08-26T00:05:10.020Z,0.40
2022-08-26T00:06:10.030Z,0.60
2022-08-26T00:07:09.991Z,0.50
2022-08-26T00:08:09.974Z,0.40
2022-08-26T00:09:09.971Z,0.40
2022-08-26T00:10:09.964Z,0.20
2022-08-26T00:11:09.952Z,0.20
2022-08-26T00:12:12.135Z,0.60
2022-08-26T00:13:09.924Z,0.40
2022-08-26T00:14:09.904Z,0.20
2022-08-26T00:15:09.914Z,0.70
2022-08-26T00:16:09.935Z,0.50
2022-08-26T00:17:09.893Z,0.30
2022-08-26T00:18:21.923Z,0.30
2022-08-26T00:19:10.874Z,0.50
2022-08-26T00:20:09.845Z,0.70
2022-08-26T00:21:09.854Z,0.50
2022-08-26T00:22:09.827Z,0.50
2022-08-26T00:23:09.808Z,0.40
2022-08-26T00:24:09.799Z,0.20
2022-08-26T00:25:09.796Z,0.40
2022-08-26T00:26:09.804Z,0.50
2022-08-26T00:27:09.775Z,0.60
2022-08-26T00:28:10.787Z,0.30
2022-08-26T00:29:09.752Z,0.30
2022-08-26T00:30:09.729Z,0.20
2022-08-26T00:31:10.956Z,0.50
2022-08-26T00:32:09.762Z,0.40
2022-08-26T00:33:09.888Z,0.40
2022-08-26T00:34:09.733Z,0.30
2022-08-26T00:35:09.688Z,0.30
2022-08-26T00:36:12.858Z,0.30
2022-08-26T00:37:13.415Z,0.80
2022-08-26T00:38:10.652Z,0.40
2022-08-26T00:39:09.630Z,0.40
2022-08-26T00:40:09.666Z,0.50
2022-08-26T00:41:09.620Z,0.70
2022-08-26T00:42:09.643Z,0.50
2022-08-26T00:43:09.681Z,0.40
2022-08-26T00:44:09.564Z,0.50
2022-08-26T00:45:11.583Z,1.20
2022-08-26T00:46:09.603Z,0.70
2022-08-26T00:47:09.523Z,0.60
2022-08-26T00:48:09.532Z,0.60
2022-08-26T00:49:12.164Z,0.60
2022-08-26T00:50:09.512Z,0.70
2022-08-26T00:51:09.513Z,0.80
2022-08-26T00:52:09.900Z,0.80
2022-08-26T00:53:09.466Z,0.70
2022-08-26T00:54:10.720Z,0.50
2022-08-26T00:55:09.455Z,0.70
2022-08-26T00:56:09.464Z,0.60
2022-08-26T00:57:16.296Z,0.40
2022-08-26T00:58:10.415Z,1.00
2022-08-26T00:59:09.411Z,1.00
2022-08-26T01:00:09.391Z,0.80
2022-08-26T01:01:09.462Z,0.70
2022-08-26T01:02:09.413Z,1.10
2022-08-26T01:03:12.697Z,1.50
2022-08-26T01:04:09.349Z,1.10
2022-08-26T01:05:09.341Z,0.60
2022-08-26T01:06:12.547Z,0.90
2022-08-26T01:07:09.318Z,0.90
2022-08-26T01:08:09.330Z,0.80
2022-08-26T01:09:09.306Z,1.00
2022-08-26T01:10:09.278Z,0.90
2022-08-26T01:11:09.339Z,0.70
2022-08-26T01:12:09.259Z,1.00
2022-08-26T01:13:09.391Z,1.00
2022-08-26T01:14:09.240Z,1.40
2022-08-26T01:15:09.230Z,0.80
2022-08-26T01:16:09.257Z,0.60
2022-08-26T01:17:09.198Z,1.10
2022-08-26T01:18:09.208Z,1.00
2022-08-26T01:19:09.191Z,0.80
2022-08-26T01:20:09.207Z,1.40
2022-08-26T01:21:09.162Z,0.80
2022-08-26T01:22:09.158Z,1.20
2022-08-26T01:23:09.291Z,1.20
2022-08-26T01:24:09.111Z,1.00
2022-08-26T01:25:09.118Z,2.00
2022-08-26T01:26:09.131Z,0.60
2022-08-26T01:27:10.084Z,1.00
2022-08-26T01:28:09.084Z,1.00
2022-08-26T01:29:09.055Z,1.00
2022-08-26T01:30:09.052Z,1.20
2022-08-26T01:31:09.105Z,1.00
2022-08-26T01:32:09.043Z,0.90
2022-08-26T01:33:09.223Z,1.60
2022-08-26T01:34:09.146Z,1.70
2022-08-26T01:35:09.004Z,1.20
2022-08-26T01:36:08.995Z,1.30
2022-08-26T01:37:08.987Z,1.30
2022-08-26T01:38:09.977Z,1.60
2022-08-26T01:39:08.956Z,1.20
2022-08-26T01:40:09.005Z,1.80
2022-08-26T01:41:16.035Z,0.70
2022-08-26T01:42:10.427Z,1.10
2022-08-26T01:43:09.421Z,1.30
2022-08-26T01:44:09.798Z,1.30
2022-08-26T01:45:08.898Z,1.40
2022-08-26T01:46:08.929Z,1.60
2022-08-26T01:47:08.866Z,1.30
2022-08-26T01:48:08.879Z,1.10
2022-08-26T01:49:08.838Z,1.40
2022-08-26T01:50:08.843Z,1.90
2022-08-26T01:51:08.851Z,1.80
2022-08-26T01:52:08.820Z,1.20
2022-08-26T01:53:09.119Z,1.50
2022-08-26T01:54:11.937Z,1.30
2022-08-26T01:55:09.780Z,1.50
2022-08-26T01:56:08.786Z,1.40
2022-08-26T01:57:08.751Z,2.00
2022-08-26T01:58:08.740Z,1.30
2022-08-26T01:59:09.362Z,1.20
2022-08-26T02:00:08.712Z,1.00
2022-08-26T02:01:09.684Z,1.50
2022-08-26T02:02:08.695Z,0.90
2022-08-26T02:03:08.767Z,1.70
2022-08-26T02:04:08.712Z,2.20
2022-08-26T02:05:08.652Z,1.40
2022-08-26T02:06:09.431Z,1.20
2022-08-26T02:07:08.637Z,2.20
2022-08-26T02:08:08.634Z,2.10
2022-08-26T02:09:08.606Z,1.30
2022-08-26T02:10:08.595Z,1.70
2022-08-26T02:11:08.605Z,1.70
2022-08-26T02:12:08.597Z,2.10
2022-08-26T02:13:08.663Z,2.10
2022-08-26T02:14:08.556Z,1.40
2022-08-26T02:15:08.577Z,1.50
2022-08-26T02:16:08.636Z,1.50
2022-08-26T02:17:08.524Z,1.80
2022-08-26T02:18:08.519Z,1.90
2022-08-26T02:19:09.505Z,1.60
2022-08-26T02:20:13.439Z,1.70
2022-08-26T02:21:09.500Z,1.90
2022-08-26T02:22:08.458Z,1.90
2022-08-26T02:23:08.681Z,1.20
2022-08-26T02:24:08.436Z,2.10
2022-08-26T02:25:08.489Z,1.40
2022-08-26T02:26:08.434Z,1.70
2022-08-26T02:27:08.388Z,1.80
2022-08-26T02:28:08.400Z,1.80
2022-08-26T02:29:08.377Z,1.60
2022-08-26T02:30:08.360Z,1.40
2022-08-26T02:31:08.412Z,1.60
2022-08-26T02:32:08.350Z,1.90
2022-08-26T02:33:08.540Z,1.70
2022-08-26T02:34:08.322Z,1.80
2022-08-26T02:35:08.320Z,1.50
2022-08-26T02:36:08.305Z,1.50
2022-08-26T02:37:08.282Z,1.40
2022-08-26T02:38:10.278Z,2.30
2022-08-26T02:39:08.261Z,1.80
2022-08-26T02:40:08.279Z,1.60
2022-08-26T02:41:08.272Z,1.60
2022-08-26T02:42:08.259Z,1.00
2022-08-26T02:43:08.552Z,1.70
2022-08-26T02:44:08.195Z,1.40
2022-08-26T02:45:08.211Z,2.20
2022-08-26T02:46:08.201Z,2.10
2022-08-26T02:47:08.228Z,1.60
2022-08-26T02:48:08.158Z,1.30
2022-08-26T02:49:08.164Z,1.10
2022-08-26T02:50:08.169Z,1.90
2022-08-26T02:51:08.146Z,1.70
2022-08-26T02:52:08.141Z,1.50
2022-08-26T02:53:08.208Z,1.50
2022-08-26T02:54:08.088Z,1.90
2022-08-26T02:55:08.088Z,1.50
2022-08-26T02:56:08.088Z,1.80
2022-08-26T02:57:08.058Z,1.10
2022-08-26T02:58:08.058Z,1.30
2022-08-26T02:59:08.038Z,2.20
2022-08-26T03:00:08.010Z,1.90
2022-08-26T03:01:08.056Z,2.40
2022-08-26T03:02:08.045Z,1.50
2022-08-26T03:03:08.159Z,2.00
2022-08-26T03:04:08.009Z,1.40
2022-08-26T03:05:07.959Z,2.70
2022-08-26T03:06:07.974Z,1.90
2022-08-26T03:07:07.920Z,1.40
2022-08-26T03:08:07.940Z,1.60
2022-08-26T03:09:07.908Z,2.10
2022-08-26T03:10:08.490Z,1.40
2022-08-26T03:11:07.921Z,1.70
2022-08-26T03:12:07.881Z,1.40
2022-08-26T03:13:08.023Z,1.40
2022-08-26T03:14:07.879Z,1.60
2022-08-26T03:15:17.650Z,2.10
2022-08-26T03:16:08.913Z,1.60
2022-08-26T03:17:07.803Z,1.80
2022-08-26T03:18:07.847Z,1.10
2022-08-26T03:19:07.790Z,1.90
2022-08-26T03:20:07.782Z,1.60
2022-08-26T03:21:07.832Z,1.30
2022-08-26T03:22:07.764Z,2.10
2022-08-26T03:23:07.887Z,1.50
2022-08-26T03:24:07.762Z,1.60
2022-08-26T03:25:07.715Z,2.00
2022-08-26T03:26:07.728Z,1.40
2022-08-26T03:27:07.694Z,1.90
2022-08-26T03:28:07.837Z,2.10
2022-08-26T03:29:07.676Z,1.60
2022-08-26T03:30:07.676Z,1.90
2022-08-26T03:31:07.793Z,1.70
2022-08-26T03:32:07.636Z,0.90
2022-08-26T03:33:07.702Z,2.00
2022-08-26T03:34:07.620Z,1.20
2022-08-26T03:35:07.617Z,1.30
2022-08-26T03:36:07.599Z,1.50
2022-08-26T03:37:07.577Z,2.00
2022-08-26T03:38:07.586Z,2.00
2022-08-26T03:39:07.566Z,1.20
2022-08-26T03:40:07.574Z,1.70
2022-08-26T03:41:07.557Z,2.20
2022-08-26T03:42:07.537Z,1.20
2022-08-26T03:43:09.869Z,2.10
2022-08-26T03:44:07.506Z,2.60
2022-08-26T03:45:07.491Z,2.10
2022-08-26T03:46:07.527Z,1.80
2022-08-26T03:47:07.459Z,1.80
2022-08-26T03:48:07.459Z,1.40
2022-08-26T03:49:07.438Z,2.50
2022-08-26T03:50:07.429Z,2.60
2022-08-26T03:51:07.438Z,2.10
2022-08-26T03:52:07.413Z,1.50
2022-08-26T03:53:12.792Z,1.70
2022-08-26T03:54:08.500Z,0.70
2022-08-26T03:55:07.373Z,1.70
2022-08-26T03:56:07.373Z,2.30
2022-08-26T03:57:07.355Z,1.40
2022-08-26T03:58:07.344Z,1.60
2022-08-26T03:59:07.682Z,1.30
2022-08-26T04:00:07.308Z,1.50
2022-08-26T04:01:07.324Z,1.80
2022-08-26T04:02:11.314Z,2.20
2022-08-26T04:03:07.594Z,2.20
2022-08-26T04:04:07.294Z,1.40
2022-08-26T04:05:07.254Z,2.10
2022-08-26T04:06:07.247Z,2.40
2022-08-26T04:07:07.235Z,2.40
2022-08-26T04:08:07.250Z,1.60
2022-08-26T04:09:07.204Z,1.80
2022-08-26T04:10:07.193Z,1.90
2022-08-26T04:11:07.215Z,1.80
2022-08-26T04:12:07.175Z,2.30
2022-08-26T04:13:07.420Z,1.40
2022-08-26T04:14:07.156Z,1.80
2022-08-26T04:15:07.136Z,1.20
2022-08-26T04:16:07.226Z,2.40
2022-08-26T04:17:07.117Z,1.80
2022-08-26T04:18:07.110Z,1.70
2022-08-26T04:19:07.347Z,1.20
2022-08-26T04:20:07.089Z,1.80
2022-08-26T04:21:07.994Z,2.10
2022-08-26T04:22:07.061Z,2.30
2022-08-26T04:23:07.243Z,1.70
2022-08-26T04:24:11.362Z,1.90
2022-08-26T04:25:08.048Z,2.10
2022-08-26T04:26:07.021Z,1.20
2022-08-26T04:27:06.998Z,2.30
2022-08-26T04:28:06.999Z,2.30
2022-08-26T04:29:06.959Z,1.50
2022-08-26T04:30:06.965Z,1.80
2022-08-26T04:31:06.996Z,2.70
2022-08-26T04:32:06.951Z,1.70
2022-08-26T04:33:12.933Z,2.10
2022-08-26T04:34:07.920Z,2.20
2022-08-26T04:35:06.911Z,1.60
2022-08-26T04:36:06.901Z,2.40
2022-08-26T04:37:06.894Z,1.70
2022-08-26T04:38:06.899Z,2.90
2022-08-26T04:39:06.855Z,2.00
2022-08-26T04:40:06.871Z,2.10
2022-08-26T04:41:06.866Z,1.80
2022-08-26T04:42:07.813Z,1.20
2022-08-26T04:43:07.084Z,1.70
2022-08-26T04:44:06.818Z,1.30
2022-08-26T04:45:10.217Z,1.50
2022-08-26T04:46:06.841Z,1.70
2022-08-26T04:47:06.767Z,2.00
2022-08-26T04:48:06.755Z,1.70
2022-08-26T04:49:06.744Z,1.50
2022-08-26T04:50:06.716Z,1.00
2022-08-26T04:51:06.754Z,1.30
2022-08-26T04:52:06.695Z,2.00
2022-08-26T04:53:07.176Z,1.20
2022-08-26T04:54:06.687Z,2.00
2022-08-26T04:55:08.551Z,2.60
2022-08-26T04:56:06.671Z,1.30
2022-08-26T04:57:06.654Z,1.60
2022-08-26T04:58:06.636Z,1.80
2022-08-26T04:59:07.245Z,2.40
2022-08-26T05:00:06.615Z,1.40
2022-08-26T05:01:06.626Z,2.30
2022-08-26T05:02:06.623Z,1.80
2022-08-26T05:03:06.697Z,1.90
2022-08-26T05:04:08.071Z,1.90
2022-08-26T05:05:06.564Z,1.70
2022-08-26T05:06:06.540Z,2.00
2022-08-26T05:07:06.543Z,1.90
2022-08-26T05:08:06.528Z,1.30
2022-08-26T05:09:06.554Z,1.60
2022-08-26T05:10:08.909Z,1.60
2022-08-26T05:11:06.500Z,1.70
2022-08-26T05:12:06.481Z,1.60
2022-08-26T05:13:10.966Z,1.30
2022-08-26T05:14:07.444Z,1.70
2022-08-26T05:15:06.440Z,1.80
2022-08-26T05:16:06.493Z,1.90
2022-08-26T05:17:06.422Z,2.60
2022-08-26T05:18:06.406Z,1.30
2022-08-26T05:19:06.402Z,1.70
2022-08-26T05:20:06.377Z,1.60
2022-08-26T05:21:06.412Z,1.40
2022-08-26T05:22:06.350Z,1.60
2022-08-26T05:23:06.364Z,2.50
2022-08-26T05:24:06.335Z,1.90
2022-08-26T05:25:06.324Z,1.70
2022-08-26T05:26:06.318Z,1.90
2022-08-26T05:27:11.531Z,1.80
2022-08-26T05:28:07.317Z,2.40
2022-08-26T05:29:06.294Z,1.30
2022-08-26T05:30:06.256Z,1.00
2022-08-26T05:31:06.318Z,1.30
2022-08-26T05:32:06.247Z,2.10
2022-08-26T05:33:06.226Z,1.60
2022-08-26T05:34:07.004Z,1.30
2022-08-26T05:35:08.877Z,1.40
2022-08-26T05:36:06.208Z,1.20
2022-08-26T05:37:06.187Z,1.10
2022-08-26T05:38:09.284Z,1.20
2022-08-26T05:39:07.148Z,0.80
2022-08-26T05:40:06.210Z,1.60
2022-08-26T05:41:06.160Z,1.60
2022-08-26T05:42:06.118Z,2.10
2022-08-26T05:43:06.119Z,1.80
2022-08-26T05:44:06.132Z,2.00
2022-08-26T05:45:06.083Z,1.50
2022-08-26T05:46:06.177Z,1.30
2022-08-26T05:47:06.062Z,0.90
2022-08-26T05:48:06.114Z,1.20
2022-08-26T05:49:06.030Z,1.80
2022-08-26T05:50:07.041Z,1.90
2022-08-26T05:51:06.023Z,0.90
2022-08-26T05:52:06.011Z,1.70
2022-08-26T05:53:06.007Z,1.80
2022-08-26T05:54:06.003Z,1.50
2022-08-26T05:55:05.982Z,1.10
2022-08-26T05:56:05.974Z,1.40
2022-08-26T05:57:06.064Z,0.90
2022-08-26T05:58:05.962Z,1.20
2022-08-26T05:59:05.915Z,1.60
2022-08-26T06:00:06.925Z,2.40
2022-08-26T06:01:05.915Z,1.40
2022-08-26T06:02:05.971Z,1.60
2022-08-26T06:03:05.984Z,1.00
2022-08-26T06:04:05.864Z,1.60
2022-08-26T06:05:05.860Z,1.00
2022-08-26T06:06:05.866Z,1.40
2022-08-26T06:07:05.838Z,1.20
2022-08-26T06:08:05.820Z,1.20
2022-08-26T06:09:05.815Z,1.00
2022-08-26T06:10:30.936Z,1.30
2022-08-26T06:11:06.828Z,0.90
2022-08-26T06:12:05.766Z,1.00
2022-08-26T06:13:11.820Z,1.00
2022-08-26T06:14:06.924Z,1.30
2022-08-26T06:15:05.747Z,1.50
2022-08-26T06:16:05.790Z,1.40
2022-08-26T06:17:05.718Z,1.10
2022-08-26T06:18:05.760Z,1.30
2022-08-26T06:19:10.992Z,1.60
2022-08-26T06:20:06.697Z,1.40
2022-08-26T06:21:05.697Z,0.90
2022-08-26T06:22:05.650Z,0.80
2022-08-26T06:23:05.692Z,1.30
2022-08-26T06:24:05.631Z,1.30
2022-08-26T06:25:05.632Z,1.10
2022-08-26T06:26:05.612Z,1.00
2022-08-26T06:27:05.595Z,1.30
2022-08-26T06:28:05.581Z,1.20
2022-08-26T06:29:05.610Z,1.50
2022-08-26T06:30:05.551Z,1.40
2022-08-26T06:31:05.655Z,1.30
2022-08-26T06:32:05.544Z,1.00
2022-08-26T06:33:05.530Z,1.50
2022-08-26T06:34:10.376Z,1.10
2022-08-26T06:35:06.503Z,1.20
2022-08-26T06:36:06.511Z,1.30
2022-08-26T06:37:05.484Z,2.20
2022-08-26T06:38:05.476Z,1.30
2022-08-26T06:39:05.454Z,1.60
2022-08-26T06:40:05.492Z,1.10
2022-08-26T06:41:05.462Z,1.90
2022-08-26T06:42:06.314Z,1.10
2022-08-26T06:43:05.446Z,1.40
2022-08-26T06:44:05.415Z,1.10
2022-08-26T06:45:05.383Z,1.50
2022-08-26T06:46:05.449Z,1.30
2022-08-26T06:47:05.375Z,1.80
2022-08-26T06:48:05.354Z,1.40
2022-08-26T06:49:05.347Z,1.10
2022-08-26T06:50:05.340Z,1.60
2022-08-26T06:51:05.330Z,1.30
2022-08-26T06:52:05.318Z,0.70
2022-08-26T06:53:05.347Z,1.10
2022-08-26T06:54:05.289Z,1.50
2022-08-26T06:55:05.350Z,2.20
2022-08-26T06:56:05.298Z,1.60
2022-08-26T06:57:05.247Z,1.50
2022-08-26T06:58:05.304Z,1.20
2022-08-26T06:59:05.219Z,1.40
2022-08-26T07:00:05.211Z,1.70
2022-08-26T07:01:11.350Z,2.00
2022-08-26T07:02:06.296Z,2.00
2022-08-26T07:03:05.247Z,1.80
2022-08-26T07:04:05.173Z,2.50
2022-08-26T07:05:06.161Z,1.50
2022-08-26T07:06:05.160Z,2.20
2022-08-26T07:07:05.142Z,1.50
2022-08-26T07:08:05.161Z,2.70
2022-08-26T07:09:05.122Z,1.60
2022-08-26T07:10:05.108Z,1.60
2022-08-26T07:11:05.128Z,1.70
2022-08-26T07:12:05.082Z,1.80
2022-08-26T07:13:06.018Z,2.20
2022-08-26T07:14:05.065Z,2.70
2022-08-26T07:15:05.046Z,1.90
2022-08-26T07:16:05.136Z,1.80
2022-08-26T07:17:05.015Z,1.90
2022-08-26T07:18:05.018Z,1.60
2022-08-26T07:19:10.835Z,1.20
2022-08-26T07:20:06.004Z,1.20
2022-08-26T07:21:05.012Z,1.50
2022-08-26T07:22:04.960Z,1.80
2022-08-26T07:23:05.004Z,2.10
2022-08-26T07:24:05.949Z,1.00
2022-08-26T07:25:04.937Z,2.30
2022-08-26T07:26:04.938Z,2.20
2022-08-26T07:27:05.553Z,1.50
2022-08-26T07:28:04.902Z,1.20
2022-08-26T07:29:04.888Z,2.60
2022-08-26T07:30:04.869Z,2.40
2022-08-26T07:31:04.972Z,2.10
2022-08-26T07:32:04.860Z,1.60
2022-08-26T07:33:04.902Z,1.50
2022-08-26T07:34:04.869Z,2.30
2022-08-26T07:35:04.809Z,1.50
2022-08-26T07:36:04.837Z,1.50
2022-08-26T07:37:04.809Z,1.80
2022-08-26T07:38:04.823Z,1.40
2022-08-26T07:39:04.763Z,1.50
2022-08-26T07:40:04.821Z,1.70
2022-08-26T07:41:04.767Z,1.10
2022-08-26T07:42:08.008Z,1.50
2022-08-26T07:43:04.846Z,1.30
2022-08-26T07:44:04.722Z,1.30
2022-08-26T07:45:04.704Z,1.80
2022-08-26T07:46:04.721Z,1.80
2022-08-26T07:47:10.104Z,2.80
2022-08-26T07:48:05.686Z,2.40
2022-08-26T07:49:04.677Z,1.90
2022-08-26T07:50:04.673Z,1.20
2022-08-26T07:51:04.666Z,1.70
2022-08-26T07:52:04.644Z,1.60
2022-08-26T07:53:04.672Z,2.10
2022-08-26T07:54:04.616Z,2.10
2022-08-26T07:55:04.604Z,1.60
2022-08-26T07:56:04.577Z,1.80
2022-08-26T07:57:05.206Z,1.40
2022-08-26T07:58:04.556Z,3.10
2022-08-26T07:59:04.558Z,1.90
2022-08-26T08:00:05.562Z,1.50
2022-08-26T08:01:04.589Z,1.80
2022-08-26T08:02:04.518Z,2.80
2022-08-26T08:03:04.516Z,2.60
2022-08-26T08:04:04.495Z,2.80
2022-08-26T08:05:04.533Z,1.90
2022-08-26T08:06:04.480Z,1.60
2022-08-26T08:07:04.457Z,1.80
2022-08-26T08:08:17.329Z,2.20
2022-08-26T08:09:05.459Z,2.50
2022-08-26T08:10:09.644Z,2.50
2022-08-26T08:11:05.450Z,2.70
2022-08-26T08:12:04.409Z,2.30
2022-08-26T08:13:04.395Z,2.80
2022-08-26T08:14:04.388Z,2.60
2022-08-26T08:15:04.380Z,1.80
2022-08-26T08:16:04.379Z,3.10
2022-08-26T08:17:04.481Z,2.70
2022-08-26T08:18:04.403Z,1.50
2022-08-26T08:19:04.323Z,1.30
2022-08-26T08:20:04.319Z,2.70
2022-08-26T08:21:21.162Z,2.20
2022-08-26T08:22:05.304Z,1.70
2022-08-26T08:23:05.284Z,2.10
2022-08-26T08:24:04.272Z,1.80
2022-08-26T08:25:06.235Z,1.90
2022-08-26T08:26:04.254Z,1.60
2022-08-26T08:27:04.233Z,2.40
2022-08-26T08:28:04.208Z,1.90
2022-08-26T08:29:04.213Z,1.10
2022-08-26T08:30:04.184Z,1.60
2022-08-26T08:31:04.239Z,2.30
2022-08-26T08:32:04.251Z,2.90
2022-08-26T08:33:04.168Z,2.30
2022-08-26T08:34:04.164Z,1.70
2022-08-26T08:35:10.792Z,1.50
2022-08-26T08:36:05.203Z,1.40
2022-08-26T08:37:06.151Z,2.20
2022-08-26T08:38:04.258Z,2.10
2022-08-26T08:39:04.116Z,2.20
2022-08-26T08:40:04.129Z,1.30
2022-08-26T08:41:05.641Z,2.00
2022-08-26T08:42:04.065Z,1.80
2022-08-26T08:43:04.181Z,2.10
2022-08-26T08:44:04.040Z,2.70
2022-08-26T08:45:04.054Z,1.50
2022-08-26T08:46:04.360Z,1.60
2022-08-26T08:47:04.021Z,1.30
2022-08-26T08:48:04.004Z,1.20
2022-08-26T08:49:03.993Z,1.80
2022-08-26T08:50:03.997Z,2.40
2022-08-26T08:51:03.981Z,1.80
2022-08-26T08:52:04.217Z,2.10
2022-08-26T08:53:03.950Z,1.60
2022-08-26T08:54:03.920Z,1.70
2022-08-26T08:55:03.929Z,2.30
2022-08-26T08:56:03.926Z,1.70
2022-08-26T08:57:03.896Z,1.50
2022-08-26T08:58:03.882Z,1.20
2022-08-26T08:59:03.874Z,1.40
2022-08-26T09:00:03.855Z,1.40
2022-08-26T09:01:03.929Z,1.60
2022-08-26T09:02:03.868Z,1.50
2022-08-26T09:03:03.826Z,2.10
2022-08-26T09:04:03.833Z,1.10
2022-08-26T09:05:03.803Z,1.50
2022-08-26T09:06:03.904Z,1.40
2022-08-26T09:07:03.786Z,1.30
2022-08-26T09:08:03.791Z,1.30
2022-08-26T09:09:03.760Z,1.20
2022-08-26T09:10:03.778Z,1.70
2022-08-26T09:11:03.741Z,1.40
2022-08-26T09:12:03.723Z,1.20
2022-08-26T09:13:03.730Z,1.50
2022-08-26T09:14:03.707Z,1.50
2022-08-26T09:15:03.681Z,0.70
2022-08-26T09:16:03.756Z,1.00
2022-08-26T09:17:03.694Z,1.40
2022-08-26T09:18:05.600Z,1.00
2022-08-26T09:19:03.647Z,1.10
2022-08-26T09:20:03.641Z,1.50
2022-08-26T09:21:03.611Z,1.80
2022-08-26T09:22:08.754Z,1.60
2022-08-26T09:23:04.588Z,1.50
2022-08-26T09:24:03.584Z,1.00
2022-08-26T09:25:03.600Z,1.00
2022-08-26T09:26:03.561Z,0.90
2022-08-26T09:27:03.548Z,1.20
2022-08-26T09:28:03.542Z,1.70
2022-08-26T09:29:03.530Z,1.40
2022-08-26T09:30:03.584Z,1.90
2022-08-26T09:31:05.709Z,1.70
2022-08-26T09:32:03.496Z,1.20
2022-08-26T09:33:03.518Z,1.00
2022-08-26T09:34:04.485Z,1.20
2022-08-26T09:35:03.493Z,1.80
2022-08-26T09:36:03.464Z,1.30
2022-08-26T09:37:04.632Z,0.90
2022-08-26T09:38:03.513Z,1.40
2022-08-26T09:39:03.424Z,1.50
2022-08-26T09:40:03.454Z,0.70
2022-08-26T09:41:03.391Z,1.30
2022-08-26T09:42:03.415Z,2.00
2022-08-26T09:43:03.391Z,1.40
2022-08-26T09:44:03.360Z,1.10
2022-08-26T09:45:03.395Z,1.60
2022-08-26T09:46:03.380Z,2.10
2022-08-26T09:47:03.336Z,1.80
2022-08-26T09:48:03.361Z,1.70
2022-08-26T09:49:03.306Z,1.60
2022-08-26T09:50:03.316Z,1.60
2022-08-26T09:51:03.319Z,1.60
2022-08-26T09:52:03.267Z,1.40
2022-08-26T09:53:03.363Z,1.40
2022-08-26T09:54:05.568Z,1.10
2022-08-26T09:55:03.448Z,1.90
2022-08-26T09:56:03.235Z,1.30
2022-08-26T09:57:03.231Z,1.80
2022-08-26T09:58:08.657Z,1.70
2022-08-26T09:59:04.611Z,2.00
2022-08-26T10:00:03.212Z,1.90
2022-08-26T10:01:03.267Z,1.80
2022-08-26T10:02:03.161Z,2.50
2022-08-26T10:03:04.251Z,1.60
2022-08-26T10:04:03.174Z,1.40
2022-08-26T10:05:09.776Z,2.10
2022-08-26T10:06:04.112Z,1.50
2022-08-26T10:07:03.114Z,1.50
2022-08-26T10:08:03.237Z,1.80
2022-08-26T10:09:08.317Z,1.20
2022-08-26T10:10:04.246Z,2.80
2022-08-26T10:11:03.115Z,2.20
2022-08-26T10:12:03.067Z,1.50
2022-08-26T10:13:03.071Z,2.00
2022-08-26T10:14:03.026Z,2.10
2022-08-26T10:15:03.083Z,1.30
2022-08-26T10:16:02.995Z,1.80
2022-08-26T10:17:03.104Z,2.10
2022-08-26T10:18:02.987Z,1.90
2022-08-26T10:19:02.975Z,2.20
2022-08-26T10:20:02.952Z,2.30
2022-08-26T10:21:02.963Z,2.40
2022-08-26T10:22:02.937Z,2.10
2022-08-26T10:23:02.990Z,1.40
2022-08-26T10:24:02.927Z,2.70
2022-08-26T10:25:02.974Z,2.20
2022-08-26T10:26:02.887Z,3.20
2022-08-26T10:27:02.866Z,2.80
2022-08-26T10:28:02.867Z,2.20
2022-08-26T10:29:02.846Z,1.40
2022-08-26T10:30:02.847Z,2.60
2022-08-26T10:31:02.820Z,1.90
2022-08-26T10:32:03.693Z,2.20
2022-08-26T10:33:02.849Z,2.30
2022-08-26T10:34:02.822Z,2.10
2022-08-26T10:35:02.841Z,2.30
2022-08-26T10:36:02.769Z,2.00
2022-08-26T10:37:14.422Z,1.90
2022-08-26T10:38:03.742Z,2.00
2022-08-26T10:39:02.739Z,2.30
2022-08-26T10:40:02.869Z,1.70
2022-08-26T10:41:02.717Z,1.90
2022-08-26T10:42:03.727Z,2.00
2022-08-26T10:43:07.199Z,1.70
2022-08-26T10:44:03.681Z,1.80
2022-08-26T10:45:02.695Z,2.80
2022-08-26T10:46:02.679Z,2.10
2022-08-26T10:47:02.678Z,1.40
2022-08-26T10:48:02.682Z,1.90
2022-08-26T10:49:03.345Z,1.70
2022-08-26T10:50:03.420Z,2.30
2022-08-26T10:51:02.598Z,2.00
2022-08-26T10:52:02.596Z,1.90
2022-08-26T10:53:02.574Z,1.60
2022-08-26T10:54:03.273Z,2.10
2022-08-26T10:55:03.113Z,1.80
2022-08-26T10:56:02.564Z,1.80
2022-08-26T10:57:02.538Z,1.70
2022-08-26T10:58:06.594Z,1.30
2022-08-26T10:59:03.526Z,1.20
2022-08-26T11:00:02.495Z,0.90
2022-08-26T11:01:02.581Z,1.10
2022-08-26T11:02:03.966Z,1.00
2022-08-26T11:03:02.524Z,1.60
2022-08-26T11:04:02.530Z,1.00
2022-08-26T11:05:02.494Z,1.10
2022-08-26T11:06:02.438Z,1.30
2022-08-26T11:07:02.420Z,0.90
2022-08-26T11:08:02.467Z,0.70
2022-08-26T11:09:02.388Z,0.50
2022-08-26T11:10:02.395Z,2.20
2022-08-26T11:11:02.373Z,1.20
2022-08-26T11:12:06.784Z,2.30
2022-08-26T11:13:03.351Z,1.40
2022-08-26T11:14:02.353Z,1.80
2022-08-26T11:15:02.362Z,2.30
2022-08-26T11:16:02.388Z,1.70
2022-08-26T11:17:02.345Z,1.60
2022-08-26T11:18:02.361Z,2.30
2022-08-26T11:19:02.303Z,1.60
2022-08-26T11:20:07.469Z,2.10
2022-08-26T11:21:03.255Z,2.20
2022-08-26T11:22:03.385Z,2.20
2022-08-26T11:23:02.232Z,1.90
2022-08-26T11:24:02.238Z,1.90
2022-08-26T11:25:02.310Z,1.10
2022-08-26T11:26:02.207Z,1.70
2022-08-26T11:27:02.196Z,1.70
2022-08-26T11:28:02.184Z,1.30
2022-08-26T11:29:03.039Z,1.50
2022-08-26T11:30:02.248Z,1.40
2022-08-26T11:31:02.144Z,1.00
2022-08-26T11:32:02.624Z,1.00
2022-08-26T11:33:02.212Z,1.50
2022-08-26T11:34:02.628Z,0.70
2022-08-26T11:35:02.114Z,1.60
2022-08-26T11:36:11.546Z,1.50
2022-08-26T11:37:03.115Z,1.70
2022-08-26T11:38:02.114Z,1.10
2022-08-26T11:39:02.783Z,1.20
2022-08-26T11:40:02.854Z,1.60
2022-08-26T11:41:03.285Z,0.90
2022-08-26T11:42:02.048Z,1.30
2022-08-26T11:43:02.018Z,1.60
2022-08-26T11:44:02.041Z,1.50
2022-08-26T11:45:05.576Z,1.70
2022-08-26T11:46:02.073Z,1.20
2022-08-26T11:47:01.972Z,1.50
2022-08-26T11:48:01.998Z,2.40
2022-08-26T11:49:01.938Z,1.50
2022-08-26T11:50:01.953Z,1.40
2022-08-26T11:51:01.920Z,0.90
2022-08-26T11:52:01.912Z,0.90
2022-08-26T11:53:02.341Z,1.30
2022-08-26T11:54:01.895Z,1.00
2022-08-26T11:55:01.912Z,1.50
2022-08-26T11:56:01.863Z,1.10
2022-08-26T11:57:04.847Z,1.00
2022-08-26T11:58:04.730Z,1.50
2022-08-26T11:59:01.813Z,0.80
2022-08-26T12:00:01.853Z,1.40
2022-08-26T12:01:01.847Z,0.70
2022-08-26T12:02:01.879Z,1.00
2022-08-26T12:03:01.828Z,1.00
2022-08-26T12:04:01.913Z,0.80
2022-08-26T12:05:01.775Z,0.60
2022-08-26T12:06:01.755Z,0.90
2022-08-26T12:07:01.796Z,0.90
2022-08-26T12:08:01.726Z,0.70
2022-08-26T12:09:01.752Z,1.30
2022-08-26T12:10:02.230Z,0.50
2022-08-26T12:11:01.729Z,1.00
2022-08-26T12:12:01.674Z,0.80
2022-08-26T12:13:01.669Z,1.10
2022-08-26T12:14:01.653Z,0.60
2022-08-26T12:15:01.657Z,0.70
2022-08-26T12:16:01.636Z,0.40
2022-08-26T12:17:01.630Z,0.50
2022-08-26T12:18:01.614Z,0.90
2022-08-26T12:19:01.596Z,1.20
2022-08-26T12:20:01.621Z,0.90
2022-08-26T12:21:01.571Z,0.60
2022-08-26T12:22:01.573Z,1.00
2022-08-26T12:23:01.554Z,0.60
2022-08-26T12:24:01.534Z,0.80
2022-08-26T12:25:01.552Z,0.60
2022-08-26T12:26:01.517Z,0.70
2022-08-26T12:27:01.532Z,1.30
2022-08-26T12:28:01.531Z,1.20
2022-08-26T12:29:01.492Z,1.00
2022-08-26T12:30:02.507Z,0.70
2022-08-26T12:31:01.454Z,0.90
2022-08-26T12:32:01.507Z,0.80
2022-08-26T12:33:01.449Z,0.90
2022-08-26T12:34:01.420Z,0.80
2022-08-26T12:35:01.488Z,1.00
2022-08-26T12:36:01.405Z,0.80
2022-08-26T12:37:01.420Z,1.00
2022-08-26T12:38:02.237Z,0.90
2022-08-26T12:39:01.365Z,2.00
2022-08-26T12:40:01.403Z,0.70
2022-08-26T12:41:01.357Z,1.10
2022-08-26T12:42:02.074Z,1.00
2022-08-26T12:43:01.415Z,0.90
2022-08-26T12:44:01.351Z,1.00
2022-08-26T12:45:01.312Z,0.90
2022-08-26T12:46:01.532Z,1.00
2022-08-26T12:47:01.287Z,0.40
2022-08-26T12:48:01.287Z,0.50
2022-08-26T12:49:01.256Z,0.80
2022-08-26T12:50:01.312Z,1.10
2022-08-26T12:51:01.251Z,0.40
2022-08-26T12:52:01.302Z,0.20
2022-08-26T12:53:01.208Z,0.20
2022-08-26T12:54:01.231Z,0.50
2022-08-26T12:55:01.194Z,0.80
2022-08-26T12:56:01.210Z,0.40
2022-08-26T12:57:01.229Z,0.70
2022-08-26T12:58:01.212Z,0.50
2022-08-26T12:59:01.213Z,0.40
2022-08-26T13:00:01.131Z,0.60
2022-08-26T13:01:01.328Z,0.30
2022-08-26T13:02:01.207Z,0.70
2022-08-26T13:03:01.083Z,0.20
2022-08-26T13:04:05.437Z,0.70
2022-08-26T13:05:05.085Z,0.70
2022-08-26T13:06:01.108Z,0.30
2022-08-26T13:07:01.083Z,0.40
2022-08-26T13:08:01.025Z,0.80
2022-08-26T13:09:01.049Z,1.00
2022-08-26T13:10:01.032Z,0.20
2022-08-26T13:11:01.045Z,0.60
2022-08-26T13:12:02.356Z,0.20
2022-08-26T13:13:01.014Z,0.20
2022-08-26T13:14:00.964Z,0.30
2022-08-26T13:15:00.977Z,0.40
2022-08-26T13:16:01.009Z,0.40
2022-08-26T13:17:00.936Z,0.60
2022-08-26T13:18:00.945Z,0.40